sensor_id;sensor_type;location;lat;lon;timestamp;P1;durP1;ratioP1;P2;durP2;ratioP2
61389;SDS011;47260;48.274;19.814;2023-04-16T00:00:35;8.02;;;5.13;;
61389;SDS011;47260;48.274;19.814;2023-04-16T00:02:07;8.38;;;5.28;;
61389;SDS011;47260;48.274;19.814;2023-04-16T00:03:40;8.27;;;5.28;;
61389;SDS011;47260;48.274;19.814;2023-04-16T00:05:12;7.15;;;5.30;;
61389;SDS011;47260;48.274;19.814;2023-04-16T00:06:43;8.25;;;5.00;;
61389;SDS011;47260;48.274;19.814;2023-04-16T00:08:15;5.97;;;5.38;;
61389;SDS011;47260;48.274;19.814;2023-04-16T00:09:47;6.88;;;4.93;;
61389;SDS011;47260;48.274;19.814;2023-04-16T00:11:17;6.93;;;5.18;;
61389;SDS011;47260;48.274;19.814;2023-04-16T00:12:49;8.30;;;5.45;;
61389;SDS011;47260;48.274;19.814;2023-04-16T00:14:21;6.60;;;5.38;;
61389;SDS011;47260;48.274;19.814;2023-04-16T00:15:51;7.45;;;5.20;;
61389;SDS011;47260;48.274;19.814;2023-04-16T00:17:23;7.05;;;4.90;;
61389;SDS011;47260;48.274;19.814;2023-04-16T00:18:56;6.65;;;5.30;;
61389;SDS011;47260;48.274;19.814;2023-04-16T00:20:28;6.47;;;5.70;;
61389;SDS011;47260;48.274;19.814;2023-04-16T00:21:59;10.70;;;7.82;;
61389;SDS011;47260;48.274;19.814;2023-04-16T00:23:30;17.17;;;10.45;;
61389;SDS011;47260;48.274;19.814;2023-04-16T00:25:01;11.45;;;8.02;;
61389;SDS011;47260;48.274;19.814;2023-04-16T00:26:33;11.93;;;8.45;;
61389;SDS011;47260;48.274;19.814;2023-04-16T00:28:05;8.52;;;6.63;;
61389;SDS011;47260;48.274;19.814;2023-04-16T00:29:36;8.05;;;5.97;;
61389;SDS011;47260;48.274;19.814;2023-04-16T00:31:08;7.50;;;6.43;;
61389;SDS011;47260;48.274;19.814;2023-04-16T00:32:40;9.68;;;6.18;;
61389;SDS011;47260;48.274;19.814;2023-04-16T00:34:13;7.72;;;5.75;;
61389;SDS011;47260;48.274;19.814;2023-04-16T00:35:45;8.20;;;5.65;;
61389;SDS011;47260;48.274;19.814;2023-04-16T00:37:15;6.25;;;5.57;;
61389;SDS011;47260;48.274;19.814;2023-04-16T00:38:47;7.68;;;5.22;;
61389;SDS011;47260;48.274;19.814;2023-04-16T00:40:19;7.18;;;6.03;;
61389;SDS011;47260;48.274;19.814;2023-04-16T00:41:50;7.60;;;5.68;;
61389;SDS011;47260;48.274;19.814;2023-04-16T00:43:22;8.27;;;5.60;;
61389;SDS011;47260;48.274;19.814;2023-04-16T00:44:54;6.68;;;5.53;;
61389;SDS011;47260;48.274;19.814;2023-04-16T00:46:26;8.52;;;5.97;;
61389;SDS011;47260;48.274;19.814;2023-04-16T00:47:58;7.10;;;5.47;;
61389;SDS011;47260;48.274;19.814;2023-04-16T00:49:32;8.02;;;5.38;;
61389;SDS011;47260;48.274;19.814;2023-04-16T00:51:06;6.60;;;5.88;;
61389;SDS011;47260;48.274;19.814;2023-04-16T00:52:39;7.15;;;5.50;;
61389;SDS011;47260;48.274;19.814;2023-04-16T00:54:10;7.05;;;5.65;;
61389;SDS011;47260;48.274;19.814;2023-04-16T00:55:42;5.90;;;5.30;;
61389;SDS011;47260;48.274;19.814;2023-04-16T00:57:13;7.47;;;5.53;;
61389;SDS011;47260;48.274;19.814;2023-04-16T00:58:45;6.65;;;5.40;;
61389;SDS011;47260;48.274;19.814;2023-04-16T01:00:16;6.38;;;5.45;;
61389;SDS011;47260;48.274;19.814;2023-04-16T01:01:48;6.75;;;5.70;;
61389;SDS011;47260;48.274;19.814;2023-04-16T01:03:20;7.93;;;5.82;;
61389;SDS011;47260;48.274;19.814;2023-04-16T01:04:53;8.63;;;5.97;;
61389;SDS011;47260;48.274;19.814;2023-04-16T01:06:24;7.65;;;6.45;;
61389;SDS011;47260;48.274;19.814;2023-04-16T01:07:57;7.63;;;5.95;;
61389;SDS011;47260;48.274;19.814;2023-04-16T01:09:29;6.75;;;5.57;;
61389;SDS011;47260;48.274;19.814;2023-04-16T01:11:01;7.47;;;5.88;;
61389;SDS011;47260;48.274;19.814;2023-04-16T01:12:33;10.00;;;6.28;;
61389;SDS011;47260;48.274;19.814;2023-04-16T01:14:05;8.73;;;5.43;;
61389;SDS011;47260;48.274;19.814;2023-04-16T01:15:36;6.50;;;5.53;;
61389;SDS011;47260;48.274;19.814;2023-04-16T01:17:08;6.32;;;5.05;;
61389;SDS011;47260;48.274;19.814;2023-04-16T01:18:40;7.15;;;5.43;;
61389;SDS011;47260;48.274;19.814;2023-04-16T01:20:13;6.03;;;5.40;;
61389;SDS011;47260;48.274;19.814;2023-04-16T01:21:47;6.00;;;5.03;;
61389;SDS011;47260;48.274;19.814;2023-04-16T01:23:17;7.75;;;5.60;;
61389;SDS011;47260;48.274;19.814;2023-04-16T01:24:49;7.40;;;6.20;;
61389;SDS011;47260;48.274;19.814;2023-04-16T01:26:21;8.18;;;5.80;;
61389;SDS011;47260;48.274;19.814;2023-04-16T01:27:52;8.82;;;6.80;;
61389;SDS011;47260;48.274;19.814;2023-04-16T01:29:24;8.65;;;6.47;;
61389;SDS011;47260;48.274;19.814;2023-04-16T01:30:56;7.00;;;6.22;;
61389;SDS011;47260;48.274;19.814;2023-04-16T01:32:40;8.73;;;6.53;;
61389;SDS011;47260;48.274;19.814;2023-04-16T01:34:12;9.40;;;6.38;;
61389;SDS011;47260;48.274;19.814;2023-04-16T01:35:44;7.05;;;5.88;;
61389;SDS011;47260;48.274;19.814;2023-04-16T01:37:19;8.35;;;6.07;;
61389;SDS011;47260;48.274;19.814;2023-04-16T01:38:51;7.05;;;6.10;;
61389;SDS011;47260;48.274;19.814;2023-04-16T01:40:23;7.10;;;6.20;;
61389;SDS011;47260;48.274;19.814;2023-04-16T01:41:55;11.50;;;6.20;;
61389;SDS011;47260;48.274;19.814;2023-04-16T01:43:26;7.05;;;6.15;;
61389;SDS011;47260;48.274;19.814;2023-04-16T01:44:58;9.02;;;6.93;;
61389;SDS011;47260;48.274;19.814;2023-04-16T01:46:31;8.02;;;6.70;;
61389;SDS011;47260;48.274;19.814;2023-04-16T01:48:05;8.95;;;6.65;;
61389;SDS011;47260;48.274;19.814;2023-04-16T01:49:37;7.78;;;6.35;;
61389;SDS011;47260;48.274;19.814;2023-04-16T01:51:09;8.20;;;6.97;;
61389;SDS011;47260;48.274;19.814;2023-04-16T01:52:42;7.03;;;5.75;;
61389;SDS011;47260;48.274;19.814;2023-04-16T01:54:13;6.72;;;5.95;;
61389;SDS011;47260;48.274;19.814;2023-04-16T01:55:45;6.70;;;6.00;;
61389;SDS011;47260;48.274;19.814;2023-04-16T01:57:16;8.18;;;6.22;;
61389;SDS011;47260;48.274;19.814;2023-04-16T01:58:48;7.88;;;6.35;;
61389;SDS011;47260;48.274;19.814;2023-04-16T02:00:21;7.13;;;6.07;;
61389;SDS011;47260;48.274;19.814;2023-04-16T02:01:52;7.05;;;5.68;;
61389;SDS011;47260;48.274;19.814;2023-04-16T02:03:24;14.15;;;6.57;;
61389;SDS011;47260;48.274;19.814;2023-04-16T02:04:56;8.27;;;7.00;;
61389;SDS011;47260;48.274;19.814;2023-04-16T02:06:28;7.30;;;5.97;;
61389;SDS011;47260;48.274;19.814;2023-04-16T02:08:02;7.22;;;6.22;;
61389;SDS011;47260;48.274;19.814;2023-04-16T02:09:34;9.30;;;6.15;;
61389;SDS011;47260;48.274;19.814;2023-04-16T02:11:09;9.77;;;5.70;;
61389;SDS011;47260;48.274;19.814;2023-04-16T02:12:41;7.03;;;6.32;;
61389;SDS011;47260;48.274;19.814;2023-04-16T02:14:13;8.30;;;6.60;;
61389;SDS011;47260;48.274;19.814;2023-04-16T02:15:45;7.53;;;6.40;;
61389;SDS011;47260;48.274;19.814;2023-04-16T02:17:17;7.65;;;6.28;;
61389;SDS011;47260;48.274;19.814;2023-04-16T02:18:51;8.25;;;6.13;;
61389;SDS011;47260;48.274;19.814;2023-04-16T02:20:24;9.27;;;6.95;;
61389;SDS011;47260;48.274;19.814;2023-04-16T02:21:59;8.15;;;6.65;;
61389;SDS011;47260;48.274;19.814;2023-04-16T02:23:32;8.50;;;6.68;;
61389;SDS011;47260;48.274;19.814;2023-04-16T02:25:04;9.20;;;7.32;;
61389;SDS011;47260;48.274;19.814;2023-04-16T02:26:36;24.35;;;13.65;;
61389;SDS011;47260;48.274;19.814;2023-04-16T02:28:14;21.33;;;12.10;;
61389;SDS011;47260;48.274;19.814;2023-04-16T02:29:49;18.45;;;11.18;;
61389;SDS011;47260;48.274;19.814;2023-04-16T02:31:21;13.13;;;9.27;;
61389;SDS011;47260;48.274;19.814;2023-04-16T02:32:53;8.75;;;6.57;;
61389;SDS011;47260;48.274;19.814;2023-04-16T02:34:25;7.03;;;6.35;;
61389;SDS011;47260;48.274;19.814;2023-04-16T02:35:57;8.73;;;5.95;;
61389;SDS011;47260;48.274;19.814;2023-04-16T02:37:29;8.75;;;6.50;;
61389;SDS011;47260;48.274;19.814;2023-04-16T02:39:02;6.25;;;5.57;;
61389;SDS011;47260;48.274;19.814;2023-04-16T02:40:33;9.40;;;5.85;;
61389;SDS011;47260;48.274;19.814;2023-04-16T02:42:05;7.93;;;6.35;;
61389;SDS011;47260;48.274;19.814;2023-04-16T02:43:36;8.40;;;6.13;;
61389;SDS011;47260;48.274;19.814;2023-04-16T02:45:08;6.82;;;6.10;;
61389;SDS011;47260;48.274;19.814;2023-04-16T02:46:40;7.03;;;6.32;;
61389;SDS011;47260;48.274;19.814;2023-04-16T02:48:12;6.90;;;6.20;;
61389;SDS011;47260;48.274;19.814;2023-04-16T02:49:44;11.88;;;8.07;;
61389;SDS011;47260;48.274;19.814;2023-04-16T02:51:15;7.60;;;6.43;;
61389;SDS011;47260;48.274;19.814;2023-04-16T02:52:47;7.15;;;6.45;;
61389;SDS011;47260;48.274;19.814;2023-04-16T02:54:22;12.20;;;6.95;;
61389;SDS011;47260;48.274;19.814;2023-04-16T02:55:54;7.78;;;6.57;;
61389;SDS011;47260;48.274;19.814;2023-04-16T02:57:26;9.30;;;7.18;;
61389;SDS011;47260;48.274;19.814;2023-04-16T02:58:57;10.40;;;7.97;;
61389;SDS011;47260;48.274;19.814;2023-04-16T03:00:29;20.65;;;12.85;;
61389;SDS011;47260;48.274;19.814;2023-04-16T03:02:01;14.90;;;9.60;;
61389;SDS011;47260;48.274;19.814;2023-04-16T03:03:33;16.92;;;11.30;;
61389;SDS011;47260;48.274;19.814;2023-04-16T03:05:04;12.68;;;9.52;;
61389;SDS011;47260;48.274;19.814;2023-04-16T03:06:36;12.88;;;9.68;;
61389;SDS011;47260;48.274;19.814;2023-04-16T03:08:07;14.65;;;10.60;;
61389;SDS011;47260;48.274;19.814;2023-04-16T03:09:41;15.55;;;10.40;;
61389;SDS011;47260;48.274;19.814;2023-04-16T03:11:12;15.48;;;11.35;;
61389;SDS011;47260;48.274;19.814;2023-04-16T03:12:43;14.32;;;9.40;;
61389;SDS011;47260;48.274;19.814;2023-04-16T03:14:15;17.00;;;11.25;;
61389;SDS011;47260;48.274;19.814;2023-04-16T03:15:48;19.73;;;11.90;;
61389;SDS011;47260;48.274;19.814;2023-04-16T03:17:20;13.25;;;9.20;;
61389;SDS011;47260;48.274;19.814;2023-04-16T03:18:52;9.82;;;8.48;;
61389;SDS011;47260;48.274;19.814;2023-04-16T03:20:24;10.80;;;8.95;;
61389;SDS011;47260;48.274;19.814;2023-04-16T03:21:56;9.88;;;7.75;;
61389;SDS011;47260;48.274;19.814;2023-04-16T03:23:27;8.63;;;6.60;;
61389;SDS011;47260;48.274;19.814;2023-04-16T03:25:00;9.80;;;7.07;;
61389;SDS011;47260;48.274;19.814;2023-04-16T03:26:31;8.20;;;7.35;;
61389;SDS011;47260;48.274;19.814;2023-04-16T03:28:02;8.30;;;7.50;;
61389;SDS011;47260;48.274;19.814;2023-04-16T03:29:36;10.65;;;8.13;;
61389;SDS011;47260;48.274;19.814;2023-04-16T03:31:10;10.60;;;7.97;;
61389;SDS011;47260;48.274;19.814;2023-04-16T03:32:42;10.80;;;7.72;;
61389;SDS011;47260;48.274;19.814;2023-04-16T03:34:14;10.57;;;8.30;;
61389;SDS011;47260;48.274;19.814;2023-04-16T03:35:46;17.05;;;7.88;;
61389;SDS011;47260;48.274;19.814;2023-04-16T03:37:26;8.95;;;7.07;;
61389;SDS011;47260;48.274;19.814;2023-04-16T03:38:57;9.57;;;7.40;;
61389;SDS011;47260;48.274;19.814;2023-04-16T03:40:31;9.10;;;7.00;;
61389;SDS011;47260;48.274;19.814;2023-04-16T03:42:04;9.40;;;7.10;;
61389;SDS011;47260;48.274;19.814;2023-04-16T03:43:36;8.63;;;7.18;;
61389;SDS011;47260;48.274;19.814;2023-04-16T03:45:08;8.82;;;7.43;;
61389;SDS011;47260;48.274;19.814;2023-04-16T03:46:41;9.80;;;7.07;;
61389;SDS011;47260;48.274;19.814;2023-04-16T03:48:12;7.43;;;6.60;;
61389;SDS011;47260;48.274;19.814;2023-04-16T03:49:45;7.80;;;6.65;;
61389;SDS011;47260;48.274;19.814;2023-04-16T03:51:17;6.93;;;6.22;;
61389;SDS011;47260;48.274;19.814;2023-04-16T03:52:48;8.13;;;7.05;;
61389;SDS011;47260;48.274;19.814;2023-04-16T03:54:21;9.13;;;7.18;;
61389;SDS011;47260;48.274;19.814;2023-04-16T03:55:58;7.10;;;6.40;;
61389;SDS011;47260;48.274;19.814;2023-04-16T03:57:31;10.25;;;7.38;;
61389;SDS011;47260;48.274;19.814;2023-04-16T03:59:11;10.30;;;7.15;;
61389;SDS011;47260;48.274;19.814;2023-04-16T04:00:43;9.43;;;7.47;;
61389;SDS011;47260;48.274;19.814;2023-04-16T04:02:17;10.20;;;7.50;;
61389;SDS011;47260;48.274;19.814;2023-04-16T04:03:49;9.02;;;7.30;;
61389;SDS011;47260;48.274;19.814;2023-04-16T04:05:21;9.30;;;7.65;;
61389;SDS011;47260;48.274;19.814;2023-04-16T04:06:52;10.57;;;8.02;;
61389;SDS011;47260;48.274;19.814;2023-04-16T04:08:24;9.20;;;7.60;;
61389;SDS011;47260;48.274;19.814;2023-04-16T04:09:56;8.07;;;6.80;;
61389;SDS011;47260;48.274;19.814;2023-04-16T04:11:29;8.32;;;6.47;;
61389;SDS011;47260;48.274;19.814;2023-04-16T04:13:01;6.88;;;6.13;;
61389;SDS011;47260;48.274;19.814;2023-04-16T04:14:33;8.75;;;6.38;;
61389;SDS011;47260;48.274;19.814;2023-04-16T04:16:09;7.15;;;6.45;;
61389;SDS011;47260;48.274;19.814;2023-04-16T04:17:41;8.20;;;7.05;;
61389;SDS011;47260;48.274;19.814;2023-04-16T04:19:13;10.52;;;7.20;;
61389;SDS011;47260;48.274;19.814;2023-04-16T04:20:46;9.20;;;7.25;;
61389;SDS011;47260;48.274;19.814;2023-04-16T04:22:20;8.40;;;7.47;;
61389;SDS011;47260;48.274;19.814;2023-04-16T04:23:51;7.95;;;7.07;;
61389;SDS011;47260;48.274;19.814;2023-04-16T04:25:23;8.80;;;7.05;;
61389;SDS011;47260;48.274;19.814;2023-04-16T04:26:57;7.43;;;6.13;;
61389;SDS011;47260;48.274;19.814;2023-04-16T04:28:28;8.85;;;6.35;;
61389;SDS011;47260;48.274;19.814;2023-04-16T04:30:00;8.20;;;6.10;;
61389;SDS011;47260;48.274;19.814;2023-04-16T04:31:31;9.65;;;6.47;;
61389;SDS011;47260;48.274;19.814;2023-04-16T04:33:03;9.75;;;6.88;;
61389;SDS011;47260;48.274;19.814;2023-04-16T04:34:35;6.95;;;5.65;;
61389;SDS011;47260;48.274;19.814;2023-04-16T04:36:07;6.18;;;5.50;;
61389;SDS011;47260;48.274;19.814;2023-04-16T04:37:40;6.45;;;5.30;;
61389;SDS011;47260;48.274;19.814;2023-04-16T04:39:23;5.25;;;4.75;;
61389;SDS011;47260;48.274;19.814;2023-04-16T04:40:55;5.43;;;4.90;;
61389;SDS011;47260;48.274;19.814;2023-04-16T04:42:31;5.65;;;4.88;;
61389;SDS011;47260;48.274;19.814;2023-04-16T04:44:02;5.60;;;4.90;;
61389;SDS011;47260;48.274;19.814;2023-04-16T04:45:34;6.00;;;5.30;;
61389;SDS011;47260;48.274;19.814;2023-04-16T04:47:05;6.75;;;5.85;;
61389;SDS011;47260;48.274;19.814;2023-04-16T04:48:37;6.70;;;4.47;;
61389;SDS011;47260;48.274;19.814;2023-04-16T04:50:09;4.63;;;4.22;;
61389;SDS011;47260;48.274;19.814;2023-04-16T04:51:41;4.95;;;4.30;;
61389;SDS011;47260;48.274;19.814;2023-04-16T04:53:13;7.40;;;4.97;;
61389;SDS011;47260;48.274;19.814;2023-04-16T04:54:45;9.20;;;6.55;;
61389;SDS011;47260;48.274;19.814;2023-04-16T04:56:16;12.20;;;7.95;;
61389;SDS011;47260;48.274;19.814;2023-04-16T04:57:49;11.50;;;8.30;;
61389;SDS011;47260;48.274;19.814;2023-04-16T04:59:21;8.13;;;6.35;;
61389;SDS011;47260;48.274;19.814;2023-04-16T05:00:54;7.95;;;6.05;;
61389;SDS011;47260;48.274;19.814;2023-04-16T05:02:26;6.13;;;5.53;;
61389;SDS011;47260;48.274;19.814;2023-04-16T05:03:58;7.25;;;6.07;;
61389;SDS011;47260;48.274;19.814;2023-04-16T05:05:29;6.50;;;5.85;;
61389;SDS011;47260;48.274;19.814;2023-04-16T05:07:01;6.82;;;5.85;;
61389;SDS011;47260;48.274;19.814;2023-04-16T05:08:33;7.63;;;5.53;;
61389;SDS011;47260;48.274;19.814;2023-04-16T05:10:04;6.75;;;5.55;;
61389;SDS011;47260;48.274;19.814;2023-04-16T05:11:36;6.68;;;5.95;;
61389;SDS011;47260;48.274;19.814;2023-04-16T05:13:09;8.15;;;5.32;;
61389;SDS011;47260;48.274;19.814;2023-04-16T05:14:41;7.68;;;6.88;;
61389;SDS011;47260;48.274;19.814;2023-04-16T05:16:12;9.32;;;6.85;;
61389;SDS011;47260;48.274;19.814;2023-04-16T05:17:44;8.73;;;6.00;;
61389;SDS011;47260;48.274;19.814;2023-04-16T05:19:16;7.28;;;6.28;;
61389;SDS011;47260;48.274;19.814;2023-04-16T05:20:48;6.43;;;5.68;;
61389;SDS011;47260;48.274;19.814;2023-04-16T05:22:19;8.98;;;7.07;;
61389;SDS011;47260;48.274;19.814;2023-04-16T05:23:51;9.48;;;7.28;;
61389;SDS011;47260;48.274;19.814;2023-04-16T05:25:23;8.63;;;6.78;;
61389;SDS011;47260;48.274;19.814;2023-04-16T05:26:55;6.78;;;6.07;;
61389;SDS011;47260;48.274;19.814;2023-04-16T05:28:28;10.07;;;6.10;;
61389;SDS011;47260;48.274;19.814;2023-04-16T05:30:01;8.10;;;6.22;;
61389;SDS011;47260;48.274;19.814;2023-04-16T05:31:33;8.25;;;6.10;;
61389;SDS011;47260;48.274;19.814;2023-04-16T05:33:04;11.80;;;6.80;;
61389;SDS011;47260;48.274;19.814;2023-04-16T05:34:36;9.93;;;6.55;;
61389;SDS011;47260;48.274;19.814;2023-04-16T05:36:08;8.98;;;5.95;;
61389;SDS011;47260;48.274;19.814;2023-04-16T05:37:39;6.00;;;4.63;;
61389;SDS011;47260;48.274;19.814;2023-04-16T05:39:11;5.13;;;4.63;;
61389;SDS011;47260;48.274;19.814;2023-04-16T05:40:43;5.70;;;4.72;;
61389;SDS011;47260;48.274;19.814;2023-04-16T05:42:15;4.25;;;3.85;;
61389;SDS011;47260;48.274;19.814;2023-04-16T05:43:48;6.20;;;4.28;;
61389;SDS011;47260;48.274;19.814;2023-04-16T05:45:19;4.38;;;3.95;;
61389;SDS011;47260;48.274;19.814;2023-04-16T05:46:51;4.35;;;3.92;;
61389;SDS011;47260;48.274;19.814;2023-04-16T05:48:23;4.78;;;4.28;;
61389;SDS011;47260;48.274;19.814;2023-04-16T05:49:54;5.82;;;4.07;;
61389;SDS011;47260;48.274;19.814;2023-04-16T05:51:25;4.35;;;3.95;;
61389;SDS011;47260;48.274;19.814;2023-04-16T05:52:57;6.00;;;5.40;;
61389;SDS011;47260;48.274;19.814;2023-04-16T05:54:28;7.78;;;6.15;;
61389;SDS011;47260;48.274;19.814;2023-04-16T05:56:00;6.20;;;4.50;;
61389;SDS011;47260;48.274;19.814;2023-04-16T05:57:32;4.50;;;4.05;;
61389;SDS011;47260;48.274;19.814;2023-04-16T05:59:05;5.85;;;4.40;;
61389;SDS011;47260;48.274;19.814;2023-04-16T06:00:37;5.38;;;4.88;;
61389;SDS011;47260;48.274;19.814;2023-04-16T06:02:09;6.15;;;5.55;;
61389;SDS011;47260;48.274;19.814;2023-04-16T06:03:41;5.63;;;5.05;;
61389;SDS011;47260;48.274;19.814;2023-04-16T06:05:13;5.88;;;4.28;;
61389;SDS011;47260;48.274;19.814;2023-04-16T06:06:44;5.10;;;4.60;;
61389;SDS011;47260;48.274;19.814;2023-04-16T06:08:16;6.82;;;5.00;;
61389;SDS011;47260;48.274;19.814;2023-04-16T06:09:47;7.28;;;5.35;;
61389;SDS011;47260;48.274;19.814;2023-04-16T06:11:18;5.88;;;4.95;;
61389;SDS011;47260;48.274;19.814;2023-04-16T06:12:50;4.82;;;4.40;;
61389;SDS011;47260;48.274;19.814;2023-04-16T06:14:23;5.50;;;4.70;;
61389;SDS011;47260;48.274;19.814;2023-04-16T06:15:54;6.90;;;5.53;;
61389;SDS011;47260;48.274;19.814;2023-04-16T06:17:25;7.75;;;5.07;;
61389;SDS011;47260;48.274;19.814;2023-04-16T06:18:57;6.32;;;5.40;;
61389;SDS011;47260;48.274;19.814;2023-04-16T06:20:29;5.70;;;5.20;;
61389;SDS011;47260;48.274;19.814;2023-04-16T06:22:00;5.30;;;4.80;;
61389;SDS011;47260;48.274;19.814;2023-04-16T06:23:32;4.82;;;4.43;;
61389;SDS011;47260;48.274;19.814;2023-04-16T06:25:04;4.40;;;4.00;;
61389;SDS011;47260;48.274;19.814;2023-04-16T06:26:36;4.47;;;4.07;;
61389;SDS011;47260;48.274;19.814;2023-04-16T06:28:08;6.35;;;5.47;;
61389;SDS011;47260;48.274;19.814;2023-04-16T06:29:41;5.75;;;5.15;;
61389;SDS011;47260;48.274;19.814;2023-04-16T06:31:13;9.05;;;5.45;;
61389;SDS011;47260;48.274;19.814;2023-04-16T06:32:45;4.72;;;4.32;;
61389;SDS011;47260;48.274;19.814;2023-04-16T06:34:16;5.05;;;4.45;;
61389;SDS011;47260;48.274;19.814;2023-04-16T06:35:47;5.80;;;5.30;;
61389;SDS011;47260;48.274;19.814;2023-04-16T06:37:19;6.32;;;5.72;;
61389;SDS011;47260;48.274;19.814;2023-04-16T06:38:51;5.30;;;4.20;;
61389;SDS011;47260;48.274;19.814;2023-04-16T06:40:22;6.90;;;4.80;;
61389;SDS011;47260;48.274;19.814;2023-04-16T06:41:54;7.03;;;5.25;;
61389;SDS011;47260;48.274;19.814;2023-04-16T06:43:26;13.10;;;7.60;;
61389;SDS011;47260;48.274;19.814;2023-04-16T06:45:00;4.25;;;3.85;;
61389;SDS011;47260;48.274;19.814;2023-04-16T06:46:32;5.13;;;4.38;;
61389;SDS011;47260;48.274;19.814;2023-04-16T06:48:04;3.90;;;3.35;;
61389;SDS011;47260;48.274;19.814;2023-04-16T06:49:36;9.88;;;6.40;;
61389;SDS011;47260;48.274;19.814;2023-04-16T06:51:08;5.97;;;4.60;;
61389;SDS011;47260;48.274;19.814;2023-04-16T06:52:42;5.18;;;4.68;;
61389;SDS011;47260;48.274;19.814;2023-04-16T06:54:13;4.80;;;4.35;;
61389;SDS011;47260;48.274;19.814;2023-04-16T06:55:45;8.10;;;4.20;;
61389;SDS011;47260;48.274;19.814;2023-04-16T06:57:17;4.68;;;3.38;;
61389;SDS011;47260;48.274;19.814;2023-04-16T06:58:49;5.03;;;3.53;;
61389;SDS011;47260;48.274;19.814;2023-04-16T07:00:22;3.67;;;3.30;;
61389;SDS011;47260;48.274;19.814;2023-04-16T07:01:54;4.50;;;3.83;;
61389;SDS011;47260;48.274;19.814;2023-04-16T07:03:25;4.50;;;4.00;;
61389;SDS011;47260;48.274;19.814;2023-04-16T07:04:57;3.10;;;2.85;;
61389;SDS011;47260;48.274;19.814;2023-04-16T07:06:29;3.78;;;3.13;;
61389;SDS011;47260;48.274;19.814;2023-04-16T07:08:01;3.10;;;2.70;;
61389;SDS011;47260;48.274;19.814;2023-04-16T07:09:32;3.13;;;2.83;;
61389;SDS011;47260;48.274;19.814;2023-04-16T07:11:04;3.83;;;3.17;;
61389;SDS011;47260;48.274;19.814;2023-04-16T07:12:36;4.00;;;3.60;;
61389;SDS011;47260;48.274;19.814;2023-04-16T07:14:07;4.85;;;4.40;;
61389;SDS011;47260;48.274;19.814;2023-04-16T07:15:41;3.30;;;3.00;;
61389;SDS011;47260;48.274;19.814;2023-04-16T07:17:12;3.58;;;3.28;;
61389;SDS011;47260;48.274;19.814;2023-04-16T07:18:44;4.00;;;3.03;;
61389;SDS011;47260;48.274;19.814;2023-04-16T07:20:16;3.90;;;3.22;;
61389;SDS011;47260;48.274;19.814;2023-04-16T07:21:47;4.45;;;3.88;;
61389;SDS011;47260;48.274;19.814;2023-04-16T07:23:19;4.20;;;3.22;;
61389;SDS011;47260;48.274;19.814;2023-04-16T07:24:51;5.28;;;3.53;;
61389;SDS011;47260;48.274;19.814;2023-04-16T07:26:23;5.38;;;3.20;;
61389;SDS011;47260;48.274;19.814;2023-04-16T07:27:55;5.10;;;3.08;;
61389;SDS011;47260;48.274;19.814;2023-04-16T07:29:26;4.47;;;3.15;;
61389;SDS011;47260;48.274;19.814;2023-04-16T07:31:00;2.95;;;2.65;;
61389;SDS011;47260;48.274;19.814;2023-04-16T07:32:32;3.28;;;2.97;;
61389;SDS011;47260;48.274;19.814;2023-04-16T07:34:03;3.38;;;3.08;;
61389;SDS011;47260;48.274;19.814;2023-04-16T07:35:35;5.10;;;4.10;;
61389;SDS011;47260;48.274;19.814;2023-04-16T07:37:06;5.93;;;4.47;;
61389;SDS011;47260;48.274;19.814;2023-04-16T07:38:38;3.58;;;3.28;;
61389;SDS011;47260;48.274;19.814;2023-04-16T07:40:10;3.33;;;2.97;;
61389;SDS011;47260;48.274;19.814;2023-04-16T07:41:42;5.38;;;4.10;;
61389;SDS011;47260;48.274;19.814;2023-04-16T07:43:14;11.43;;;4.90;;
61389;SDS011;47260;48.274;19.814;2023-04-16T07:44:46;4.35;;;3.10;;
61389;SDS011;47260;48.274;19.814;2023-04-16T07:46:19;5.60;;;3.10;;
61389;SDS011;47260;48.274;19.814;2023-04-16T07:47:51;4.22;;;3.60;;
61389;SDS011;47260;48.274;19.814;2023-04-16T07:49:23;3.92;;;3.47;;
61389;SDS011;47260;48.274;19.814;2023-04-16T07:50:54;3.10;;;2.80;;
61389;SDS011;47260;48.274;19.814;2023-04-16T07:52:26;3.75;;;3.33;;
61389;SDS011;47260;48.274;19.814;2023-04-16T07:53:58;4.13;;;3.22;;
61389;SDS011;47260;48.274;19.814;2023-04-16T07:55:30;3.65;;;2.72;;
61389;SDS011;47260;48.274;19.814;2023-04-16T07:57:01;2.92;;;2.65;;
61389;SDS011;47260;48.274;19.814;2023-04-16T07:58:33;2.60;;;2.40;;
61389;SDS011;47260;48.274;19.814;2023-04-16T08:00:05;2.30;;;2.10;;
61389;SDS011;47260;48.274;19.814;2023-04-16T08:01:45;3.78;;;1.85;;
61389;SDS011;47260;48.274;19.814;2023-04-16T08:03:17;2.28;;;2.08;;
61389;SDS011;47260;48.274;19.814;2023-04-16T08:04:49;2.13;;;2.00;;
61389;SDS011;47260;48.274;19.814;2023-04-16T08:06:20;2.85;;;2.38;;
61389;SDS011;47260;48.274;19.814;2023-04-16T08:07:52;2.50;;;2.30;;
61389;SDS011;47260;48.274;19.814;2023-04-16T08:09:25;3.30;;;2.95;;
61389;SDS011;47260;48.274;19.814;2023-04-16T08:10:57;2.40;;;2.20;;
61389;SDS011;47260;48.274;19.814;2023-04-16T08:12:29;2.53;;;2.20;;
61389;SDS011;47260;48.274;19.814;2023-04-16T08:14:01;2.10;;;2.00;;
61389;SDS011;47260;48.274;19.814;2023-04-16T08:15:33;2.63;;;2.42;;
61389;SDS011;47260;48.274;19.814;2023-04-16T08:17:06;2.33;;;2.10;;
61389;SDS011;47260;48.274;19.814;2023-04-16T08:18:38;2.17;;;1.98;;
61389;SDS011;47260;48.274;19.814;2023-04-16T08:20:10;2.63;;;2.40;;
61389;SDS011;47260;48.274;19.814;2023-04-16T08:21:41;2.72;;;2.53;;
61389;SDS011;47260;48.274;19.814;2023-04-16T08:23:13;2.83;;;2.63;;
61389;SDS011;47260;48.274;19.814;2023-04-16T08:24:45;2.53;;;2.30;;
61389;SDS011;47260;48.274;19.814;2023-04-16T08:26:16;2.40;;;2.20;;
61389;SDS011;47260;48.274;19.814;2023-04-16T08:27:48;3.40;;;2.38;;
61389;SDS011;47260;48.274;19.814;2023-04-16T08:29:20;2.53;;;2.22;;
61389;SDS011;47260;48.274;19.814;2023-04-16T08:30:54;2.75;;;2.28;;
61389;SDS011;47260;48.274;19.814;2023-04-16T08:32:27;2.75;;;2.55;;
61389;SDS011;47260;48.274;19.814;2023-04-16T08:33:59;4.72;;;3.63;;
61389;SDS011;47260;48.274;19.814;2023-04-16T08:35:31;5.15;;;3.10;;
61389;SDS011;47260;48.274;19.814;2023-04-16T08:37:02;2.83;;;2.45;;
61389;SDS011;47260;48.274;19.814;2023-04-16T08:38:34;5.50;;;3.38;;
61389;SDS011;47260;48.274;19.814;2023-04-16T08:40:06;2.92;;;2.72;;
61389;SDS011;47260;48.274;19.814;2023-04-16T08:41:40;4.03;;;3.40;;
61389;SDS011;47260;48.274;19.814;2023-04-16T08:43:15;3.03;;;2.70;;
61389;SDS011;47260;48.274;19.814;2023-04-16T08:44:49;2.85;;;2.55;;
61389;SDS011;47260;48.274;19.814;2023-04-16T08:46:23;1.90;;;1.80;;
61389;SDS011;47260;48.274;19.814;2023-04-16T08:47:57;3.15;;;2.67;;
61389;SDS011;47260;48.274;19.814;2023-04-16T08:49:29;1.92;;;1.77;;
61389;SDS011;47260;48.274;19.814;2023-04-16T08:51:07;3.75;;;2.85;;
61389;SDS011;47260;48.274;19.814;2023-04-16T08:52:42;4.13;;;2.40;;
61389;SDS011;47260;48.274;19.814;2023-04-16T08:54:25;2.42;;;2.22;;
61389;SDS011;47260;48.274;19.814;2023-04-16T08:56:02;3.55;;;2.45;;
61389;SDS011;47260;48.274;19.814;2023-04-16T08:57:37;1.63;;;1.50;;
61389;SDS011;47260;48.274;19.814;2023-04-16T08:59:12;2.35;;;1.70;;
61389;SDS011;47260;48.274;19.814;2023-04-16T09:00:44;3.53;;;2.55;;
61389;SDS011;47260;48.274;19.814;2023-04-16T09:02:18;3.00;;;2.50;;
61389;SDS011;47260;48.274;19.814;2023-04-16T09:03:52;3.40;;;2.40;;
61389;SDS011;47260;48.274;19.814;2023-04-16T09:05:24;6.75;;;2.33;;
61389;SDS011;47260;48.274;19.814;2023-04-16T09:06:57;4.03;;;2.13;;